createdAt,value
2022-12-18T00:01:18.275Z,7.70
2022-12-18T00:03:48.088Z,7.28
2022-12-18T00:06:16.355Z,6.13
2022-12-18T00:08:45.000Z,6.55
2022-12-18T00:11:16.333Z,6.30
2022-12-18T00:13:44.473Z,7.05
2022-12-18T00:16:14.639Z,7.35
2022-12-18T00:18:43.625Z,6.88
2022-12-18T00:21:14.158Z,7.15
2022-12-18T00:23:43.932Z,7.60
2022-12-18T00:26:16.945Z,6.70
2022-12-18T00:28:45.367Z,7.40
2022-12-18T00:31:15.344Z,6.00
2022-12-18T00:33:43.117Z,6.47
2022-12-18T00:36:15.028Z,6.10
2022-12-18T00:38:43.295Z,6.53
2022-12-18T00:41:12.499Z,5.88
2022-12-18T00:43:40.320Z,5.53
2022-12-18T00:46:08.556Z,5.80
2022-12-18T00:48:37.296Z,6.45
2022-12-18T00:51:05.023Z,6.25
2022-12-18T00:53:33.996Z,6.25
2022-12-18T00:56:01.614Z,7.68
2022-12-18T00:58:29.351Z,7.90
2022-12-18T01:00:57.181Z,6.07
2022-12-18T01:03:24.867Z,6.70
2022-12-18T01:05:52.575Z,6.15
2022-12-18T01:08:20.252Z,6.15
2022-12-18T01:10:49.463Z,6.35
2022-12-18T01:13:17.159Z,5.32
2022-12-18T01:15:50.319Z,5.90
2022-12-18T01:18:18.135Z,7.60
2022-12-18T01:20:45.766Z,6.82
2022-12-18T01:23:13.426Z,6.95
2022-12-18T01:25:41.004Z,7.82
2022-12-18T01:28:12.499Z,6.85
2022-12-18T01:30:40.116Z,6.95
2022-12-18T01:33:07.757Z,6.47
2022-12-18T01:35:42.411Z,6.00
2022-12-18T01:38:10.176Z,6.55
2022-12-18T01:40:38.407Z,6.88
2022-12-18T01:43:06.051Z,6.28
2022-12-18T01:45:35.110Z,6.18
2022-12-18T01:48:05.171Z,6.35
2022-12-18T01:50:37.584Z,5.85
2022-12-18T01:53:09.267Z,5.15
2022-12-18T01:55:40.357Z,5.93
2022-12-18T01:58:08.092Z,5.82
2022-12-18T02:00:37.122Z,5.22
2022-12-18T02:03:05.110Z,6.50
2022-12-18T02:05:46.368Z,5.32
2022-12-18T02:08:21.591Z,6.80
2022-12-18T02:10:58.915Z,5.30
2022-12-18T02:13:34.065Z,5.50
2022-12-18T02:16:10.096Z,5.75
2022-12-18T02:18:43.451Z,5.40
2022-12-18T02:21:20.003Z,6.00
2022-12-18T02:23:56.535Z,6.20
2022-12-18T02:26:31.003Z,6.15
2022-12-18T02:29:04.749Z,6.63
2022-12-18T02:31:37.693Z,6.35
2022-12-18T02:34:09.345Z,6.55
2022-12-18T02:36:43.310Z,6.22
2022-12-18T02:39:14.091Z,5.85
2022-12-18T02:41:52.646Z,6.95
2022-12-18T02:44:22.255Z,5.72
2022-12-18T02:46:53.109Z,5.18
2022-12-18T02:49:32.895Z,6.10
2022-12-18T02:52:12.592Z,5.40
2022-12-18T02:54:53.758Z,6.20
2022-12-18T02:57:32.294Z,5.20
2022-12-18T03:00:06.873Z,5.55
2022-12-18T03:02:41.688Z,5.60
2022-12-18T03:05:15.129Z,5.78
2022-12-18T03:07:48.957Z,5.32
2022-12-18T03:10:21.396Z,4.70
2022-12-18T03:12:55.613Z,4.53
2022-12-18T03:15:30.414Z,5.50
2022-12-18T03:18:11.419Z,4.82
2022-12-18T03:20:41.768Z,4.90
2022-12-18T03:23:13.948Z,4.90
2022-12-18T03:25:43.819Z,5.35
2022-12-18T03:28:16.357Z,4.90
2022-12-18T03:30:47.621Z,5.60
2022-12-18T03:33:20.941Z,5.25
2022-12-18T03:35:51.521Z,4.90
2022-12-18T03:38:20.159Z,5.28
2022-12-18T03:41:01.837Z,6.15
2022-12-18T03:43:43.313Z,5.55
2022-12-18T03:46:21.043Z,4.85
2022-12-18T03:48:53.760Z,4.40
2022-12-18T03:51:28.774Z,4.47
2022-12-18T03:54:00.324Z,5.10
2022-12-18T03:56:37.478Z,4.30
2022-12-18T03:59:09.771Z,3.90
2022-12-18T04:01:42.472Z,4.65
2022-12-18T04:04:14.241Z,4.30
2022-12-18T04:06:44.054Z,4.68
2022-12-18T04:09:14.272Z,5.00
2022-12-18T04:11:45.793Z,4.60
2022-12-18T04:14:18.333Z,4.63
2022-12-18T04:16:49.050Z,4.38
2022-12-18T04:19:18.877Z,5.13
2022-12-18T04:21:49.706Z,5.13
2022-12-18T04:24:17.333Z,4.78
2022-12-18T04:26:54.501Z,3.80
2022-12-18T04:29:29.909Z,4.40
2022-12-18T04:31:58.057Z,4.40
2022-12-18T04:34:28.325Z,4.25
2022-12-18T04:36:56.797Z,4.22
2022-12-18T04:39:24.980Z,3.85
2022-12-18T04:41:55.682Z,4.03
2022-12-18T04:44:23.633Z,3.40
2022-12-18T04:46:52.943Z,3.25
2022-12-18T04:49:20.709Z,3.70
2022-12-18T04:51:48.381Z,3.55
2022-12-18T04:54:16.831Z,4.20
2022-12-18T04:56:44.460Z,3.78
2022-12-18T04:59:12.173Z,4.32
2022-12-18T05:01:39.920Z,3.65
2022-12-18T05:04:09.025Z,3.85
2022-12-18T05:06:36.699Z,3.55
2022-12-18T05:09:04.762Z,4.10
2022-12-18T05:11:33.675Z,3.78
2022-12-18T05:14:02.787Z,3.30
2022-12-18T05:16:30.540Z,3.15
2022-12-18T05:18:58.232Z,3.80
2022-12-18T05:21:27.199Z,3.78
2022-12-18T05:23:54.795Z,3.60
2022-12-18T05:26:22.454Z,3.10
2022-12-18T05:28:50.127Z,3.72
2022-12-18T05:31:17.981Z,3.97
2022-12-18T05:33:45.635Z,3.65
2022-12-18T05:36:13.385Z,4.53
2022-12-18T05:38:42.415Z,4.18
2022-12-18T05:41:11.069Z,3.47
2022-12-18T05:43:40.248Z,3.90
2022-12-18T05:46:08.853Z,4.43
2022-12-18T05:48:36.650Z,3.70
2022-12-18T05:51:08.952Z,3.60
2022-12-18T05:53:38.041Z,3.78
2022-12-18T05:56:09.410Z,3.13
2022-12-18T05:58:37.833Z,3.58
2022-12-18T06:01:10.668Z,3.92
2022-12-18T06:03:38.695Z,3.53
2022-12-18T06:06:14.271Z,4.47
2022-12-18T06:08:46.221Z,4.05
2022-12-18T06:11:19.358Z,4.40
2022-12-18T06:13:47.385Z,3.95
2022-12-18T06:16:15.307Z,3.50
2022-12-18T06:18:43.155Z,4.53
2022-12-18T06:21:10.923Z,3.78
2022-12-18T06:23:38.982Z,3.03
2022-12-18T06:26:07.924Z,3.85
2022-12-18T06:28:37.037Z,4.18
2022-12-18T06:31:05.510Z,3.83
2022-12-18T06:33:33.662Z,3.72
2022-12-18T06:36:02.718Z,3.25
2022-12-18T06:38:30.512Z,4.25
2022-12-18T06:40:58.453Z,4.00
2022-12-18T06:43:26.465Z,4.07
2022-12-18T06:46:00.811Z,3.90
2022-12-18T06:48:28.591Z,3.60
2022-12-18T06:50:56.270Z,4.97
2022-12-18T06:53:23.944Z,3.83
2022-12-18T06:55:52.005Z,4.38
2022-12-18T06:58:19.752Z,4.32
2022-12-18T07:00:47.474Z,4.07
2022-12-18T07:03:16.448Z,4.70
2022-12-18T07:05:44.048Z,4.32
2022-12-18T07:08:11.681Z,3.70
2022-12-18T07:10:47.419Z,4.18
2022-12-18T07:13:16.820Z,4.00
2022-12-18T07:15:44.947Z,4.95
2022-12-18T07:18:12.970Z,4.70
2022-12-18T07:20:42.657Z,4.82
2022-12-18T07:23:10.267Z,4.65
2022-12-18T07:25:38.661Z,5.20
2022-12-18T07:28:06.927Z,4.30
2022-12-18T07:30:34.849Z,5.30
2022-12-18T07:33:02.457Z,4.90
2022-12-18T07:35:30.029Z,4.75
2022-12-18T07:37:58.981Z,4.57
2022-12-18T07:40:26.627Z,4.88
2022-12-18T07:42:54.293Z,5.10
2022-12-18T07:45:21.928Z,4.80
2022-12-18T07:47:49.690Z,4.78
2022-12-18T07:50:17.621Z,4.85
2022-12-18T07:52:45.235Z,5.40
2022-12-18T07:55:14.322Z,5.30
2022-12-18T07:57:50.759Z,5.88
2022-12-18T08:00:19.987Z,4.65
2022-12-18T08:02:49.092Z,5.20
2022-12-18T08:05:16.968Z,5.40
2022-12-18T08:07:44.559Z,5.32
2022-12-18T08:10:12.157Z,4.78
2022-12-18T08:12:41.289Z,5.35
2022-12-18T08:15:10.011Z,4.55
2022-12-18T08:17:37.750Z,4.93
2022-12-18T08:20:05.689Z,4.43
2022-12-18T08:22:36.227Z,4.75
2022-12-18T08:25:04.597Z,4.60
2022-12-18T08:27:33.205Z,4.75
2022-12-18T08:30:03.892Z,5.00
2022-12-18T08:32:33.305Z,4.03
2022-12-18T08:35:01.042Z,4.75
2022-12-18T08:37:28.713Z,3.78
2022-12-18T08:39:56.354Z,3.38
2022-12-18T08:42:41.796Z,3.17
2022-12-18T08:45:11.454Z,3.65
2022-12-18T08:47:39.111Z,3.15
2022-12-18T08:50:07.686Z,3.55
2022-12-18T08:52:35.311Z,3.15
2022-12-18T08:55:03.075Z,3.10
2022-12-18T08:57:30.718Z,2.97
2022-12-18T08:59:58.343Z,2.80
2022-12-18T09:02:27.542Z,3.25
2022-12-18T09:04:57.608Z,3.00
2022-12-18T09:07:25.476Z,2.90
2022-12-18T09:09:53.138Z,3.40
2022-12-18T09:12:20.753Z,3.85
2022-12-18T09:14:48.491Z,3.15
2022-12-18T09:17:16.159Z,2.92
2022-12-18T09:19:45.241Z,3.15
2022-12-18T09:22:12.879Z,2.83
2022-12-18T09:24:40.565Z,3.10
2022-12-18T09:27:08.234Z,2.90
2022-12-18T09:29:36.342Z,3.10
2022-12-18T09:32:03.973Z,3.13
2022-12-18T09:34:31.583Z,2.83
2022-12-18T09:37:00.557Z,2.38
2022-12-18T09:39:28.199Z,3.33
2022-12-18T09:41:59.253Z,2.78
2022-12-18T09:44:29.179Z,2.78
2022-12-18T09:47:05.289Z,2.70
2022-12-18T09:49:36.914Z,2.63
2022-12-18T09:52:10.468Z,2.92
2022-12-18T09:54:41.976Z,3.10
2022-12-18T09:57:15.306Z,3.35
2022-12-18T09:59:46.240Z,3.03
2022-12-18T10:02:19.531Z,3.22
2022-12-18T10:05:01.850Z,3.10
2022-12-18T10:07:40.302Z,3.53
2022-12-18T10:10:16.455Z,2.95
2022-12-18T10:12:51.643Z,3.28
2022-12-18T10:15:26.392Z,3.22
2022-12-18T10:18:00.196Z,3.22
2022-12-18T10:20:34.768Z,3.05
2022-12-18T10:23:14.079Z,3.15
2022-12-18T10:25:56.160Z,3.10
2022-12-18T10:28:25.428Z,3.20
2022-12-18T10:30:53.050Z,3.15
2022-12-18T10:33:22.614Z,3.35
2022-12-18T10:35:53.573Z,2.88
2022-12-18T10:38:28.609Z,3.85
2022-12-18T10:40:58.455Z,2.38
2022-12-18T10:43:28.393Z,3.22
2022-12-18T10:46:02.844Z,3.35
2022-12-18T10:48:32.600Z,3.60
2022-12-18T10:51:15.607Z,2.97
2022-12-18T10:53:44.717Z,2.67
2022-12-18T10:56:12.743Z,3.40
2022-12-18T10:58:41.468Z,4.10
2022-12-18T11:01:12.859Z,3.30
2022-12-18T11:03:42.896Z,3.03
2022-12-18T11:06:13.204Z,3.30
2022-12-18T11:08:42.853Z,3.30
2022-12-18T11:11:22.711Z,3.60
2022-12-18T11:14:01.018Z,3.50
2022-12-18T11:16:31.749Z,3.55
2022-12-18T11:19:15.160Z,3.05
2022-12-18T11:21:43.570Z,3.90
2022-12-18T11:24:22.939Z,3.63
2022-12-18T11:26:57.846Z,4.22
2022-12-18T11:29:33.440Z,3.00
2022-12-18T11:32:27.371Z,4.00
2022-12-18T11:35:00.180Z,3.58
2022-12-18T11:37:29.663Z,5.05
2022-12-18T11:40:02.375Z,3.53
2022-12-18T11:42:39.411Z,4.15
2022-12-18T11:45:25.613Z,3.30
2022-12-18T11:47:59.873Z,3.55
2022-12-18T11:50:31.712Z,3.85
2022-12-18T11:53:05.641Z,3.70
2022-12-18T11:55:41.853Z,4.32
2022-12-18T11:58:19.942Z,4.70
2022-12-18T12:00:57.130Z,3.72
2022-12-18T12:03:40.802Z,3.50
2022-12-18T12:06:15.590Z,4.38
2022-12-18T12:08:56.587Z,3.45
2022-12-18T12:11:36.199Z,3.63
2022-12-18T12:14:24.588Z,4.95
2022-12-18T12:16:59.220Z,4.18
2022-12-18T12:19:38.622Z,4.10
2022-12-18T12:22:13.448Z,4.65
2022-12-18T12:24:55.572Z,4.43
2022-12-18T12:27:35.651Z,5.07
2022-12-18T12:30:12.587Z,4.25
2022-12-18T12:32:51.611Z,4.65
2022-12-18T12:35:31.648Z,4.80
2022-12-18T12:38:10.183Z,4.35
2022-12-18T12:40:57.026Z,4.90
2022-12-18T12:43:35.549Z,3.97
2022-12-18T12:46:07.946Z,5.22
2022-12-18T12:48:43.021Z,5.10
2022-12-18T12:51:17.704Z,4.60
2022-12-18T12:53:46.973Z,4.88
2022-12-18T12:56:18.844Z,5.25
2022-12-18T12:59:01.732Z,5.25
2022-12-18T13:01:40.790Z,5.15
2022-12-18T13:04:21.480Z,5.50
2022-12-18T13:06:56.451Z,6.75
2022-12-18T13:09:24.081Z,5.80
2022-12-18T13:12:09.520Z,5.38
2022-12-18T13:14:39.088Z,5.80
2022-12-18T13:17:32.981Z,5.20
2022-12-18T13:20:10.837Z,6.70
2022-12-18T13:22:40.595Z,7.13
2022-12-18T13:25:30.886Z,6.90
2022-12-18T13:28:10.638Z,5.70
2022-12-18T13:30:47.470Z,6.15
2022-12-18T13:36:41.305Z,6.60
2022-12-18T13:39:29.945Z,6.57
2022-12-18T13:42:57.006Z,7.28
2022-12-18T13:45:40.769Z,8.13
2022-12-18T13:48:18.102Z,7.28
2022-12-18T13:50:51.511Z,7.03
2022-12-18T13:53:25.766Z,7.78
2022-12-18T13:55:53.869Z,6.40
2022-12-18T13:58:21.485Z,7.57
2022-12-18T14:00:50.349Z,8.00
2022-12-18T14:03:23.040Z,8.10
2022-12-18T14:06:02.092Z,10.38
2022-12-18T14:08:37.011Z,9.00
2022-12-18T14:11:07.804Z,8.82
2022-12-18T14:13:39.255Z,9.93
2022-12-18T14:16:09.572Z,8.93
2022-12-18T14:18:45.686Z,10.18
2022-12-18T14:21:21.868Z,9.77
2022-12-18T14:23:51.226Z,8.52
2022-12-18T14:26:25.417Z,8.07
2022-12-18T14:28:54.796Z,9.25
2022-12-18T14:31:24.908Z,7.45
2022-12-18T14:33:53.257Z,9.95
2022-12-18T14:36:23.366Z,9.20
2022-12-18T14:38:54.802Z,8.90
2022-12-18T14:41:23.575Z,10.35
2022-12-18T14:43:53.351Z,8.93
2022-12-18T14:46:30.448Z,10.40
2022-12-18T14:48:59.208Z,9.60
2022-12-18T14:51:28.152Z,8.75
2022-12-18T14:53:58.555Z,10.20
2022-12-18T14:56:28.964Z,11.63
2022-12-18T14:58:58.666Z,9.98
2022-12-18T15:01:29.568Z,10.20
2022-12-18T15:03:59.562Z,12.95
2022-12-18T15:06:38.548Z,12.05
2022-12-18T15:09:22.435Z,10.75
2022-12-18T15:11:51.263Z,9.57
2022-12-18T15:14:32.813Z,10.05
2022-12-18T15:17:02.502Z,10.70
2022-12-18T15:19:38.045Z,10.73
2022-12-18T15:22:06.763Z,10.40
2022-12-18T15:24:36.003Z,10.75
2022-12-18T15:27:03.646Z,11.80
2022-12-18T15:29:31.492Z,11.30
2022-12-18T15:32:04.037Z,10.95
2022-12-18T15:34:32.264Z,10.88
2022-12-18T15:36:59.935Z,9.52
2022-12-18T15:39:27.571Z,10.93
2022-12-18T15:42:14.008Z,10.85
2022-12-18T15:44:41.825Z,12.00
2022-12-18T15:47:14.631Z,12.20
2022-12-18T15:49:42.343Z,13.15
2022-12-18T15:52:14.302Z,13.32
2022-12-18T15:54:59.621Z,13.00
2022-12-18T15:57:28.595Z,14.60
2022-12-18T15:59:59.189Z,12.90
2022-12-18T16:02:28.893Z,12.70
2022-12-18T16:04:56.688Z,13.35
2022-12-18T16:07:25.517Z,13.90
2022-12-18T16:09:57.436Z,12.40
2022-12-18T16:12:27.677Z,13.15
2022-12-18T16:14:55.339Z,12.95
2022-12-18T16:17:23.047Z,12.93
2022-12-18T16:19:50.711Z,13.32
2022-12-18T16:22:23.175Z,12.57
2022-12-18T16:24:51.703Z,13.02
2022-12-18T16:27:20.099Z,13.73
2022-12-18T16:29:49.206Z,12.70
2022-12-18T16:32:19.226Z,13.07
2022-12-18T16:34:47.492Z,13.13
2022-12-18T16:37:16.896Z,12.85
2022-12-18T16:39:44.959Z,13.13
2022-12-18T16:42:17.150Z,14.32
2022-12-18T16:44:46.265Z,13.80
2022-12-18T16:47:15.669Z,14.63
2022-12-18T16:49:45.173Z,15.90
2022-12-18T16:52:14.173Z,15.55
2022-12-18T16:54:42.853Z,16.90
2022-12-18T16:57:14.088Z,13.38
2022-12-18T16:59:41.916Z,15.82
2022-12-18T17:02:17.133Z,16.08
2022-12-18T17:04:47.318Z,14.77
2022-12-18T17:07:15.281Z,13.95
2022-12-18T17:09:43.482Z,14.95
2022-12-18T17:12:11.174Z,16.60
2022-12-18T17:14:38.878Z,15.07
2022-12-18T17:17:21.022Z,18.35
2022-12-18T17:19:50.714Z,15.18
2022-12-18T17:22:18.346Z,17.00
2022-12-18T17:24:47.038Z,14.88
2022-12-18T17:27:14.713Z,16.77
2022-12-18T17:29:47.354Z,15.70
2022-12-18T17:32:15.832Z,17.70
2022-12-18T17:34:43.542Z,15.95
2022-12-18T17:37:12.506Z,17.35
2022-12-18T17:39:40.577Z,18.20
2022-12-18T17:42:10.085Z,16.95
2022-12-18T17:44:42.422Z,16.05
2022-12-18T17:47:11.948Z,16.98
2022-12-18T17:49:39.691Z,17.33
2022-12-18T17:52:07.992Z,17.33
2022-12-18T17:54:39.484Z,17.25
2022-12-18T17:57:07.223Z,17.33
2022-12-18T17:59:34.901Z,17.58
2022-12-18T18:02:02.784Z,18.92
2022-12-18T18:04:30.509Z,18.17
2022-12-18T18:06:58.198Z,16.55
2022-12-18T18:09:25.844Z,18.77
2022-12-18T18:12:12.431Z,17.58
2022-12-18T18:14:40.244Z,17.95
2022-12-18T18:17:08.316Z,19.60
2022-12-18T18:19:36.092Z,19.13
2022-12-18T18:22:04.000Z,18.20
2022-12-18T18:24:31.922Z,17.13
2022-12-18T18:27:00.879Z,18.05
2022-12-18T18:29:30.245Z,19.00
2022-12-18T18:31:58.334Z,19.00
2022-12-18T18:34:27.695Z,19.20
2022-12-18T18:36:55.327Z,18.42
2022-12-18T18:39:26.072Z,17.63
2022-12-18T18:41:54.252Z,18.35
2022-12-18T18:44:25.635Z,17.92
2022-12-18T18:46:54.918Z,20.40
2022-12-18T18:49:24.059Z,16.73
2022-12-18T18:51:51.960Z,19.70
2022-12-18T18:54:19.597Z,18.85
2022-12-18T18:59:36.297Z,18.77
2022-12-18T19:02:04.418Z,18.40
2022-12-18T19:04:33.711Z,19.50
2022-12-18T19:07:01.626Z,19.35
2022-12-18T19:09:29.708Z,18.63
2022-12-18T19:12:15.538Z,17.33
2022-12-18T19:14:45.085Z,19.65
2022-12-18T19:17:12.916Z,20.20
2022-12-18T19:19:40.585Z,19.30
2022-12-18T19:22:09.310Z,19.70
2022-12-18T19:24:37.511Z,19.08
2022-12-18T19:27:06.257Z,19.98
2022-12-18T19:29:34.001Z,18.17
2022-12-18T19:32:03.386Z,21.23
2022-12-18T19:34:31.112Z,17.38
2022-12-18T19:36:59.852Z,21.17
2022-12-18T19:39:28.095Z,20.65
2022-12-18T19:41:55.705Z,20.02
2022-12-18T19:44:23.370Z,19.30
2022-12-18T19:46:52.174Z,20.65
2022-12-18T19:49:21.145Z,20.08
2022-12-18T19:51:50.272Z,17.83
2022-12-18T19:54:18.350Z,20.50
2022-12-18T19:56:46.970Z,20.45
2022-12-18T19:59:14.973Z,19.20
2022-12-18T20:01:42.785Z,18.42
2022-12-18T20:04:10.945Z,18.77
2022-12-18T20:06:49.743Z,18.83
2022-12-18T20:09:18.391Z,18.83
2022-12-18T20:11:46.838Z,18.92
2022-12-18T20:14:22.505Z,18.58
2022-12-18T20:16:52.351Z,19.20
2022-12-18T20:19:39.826Z,17.25
2022-12-18T20:22:09.158Z,18.85
2022-12-18T20:24:36.793Z,19.45
2022-12-18T20:27:04.657Z,18.27
2022-12-18T20:29:32.389Z,18.50
2022-12-18T20:32:00.389Z,19.90
2022-12-18T20:34:28.031Z,17.30
2022-12-18T20:36:56.133Z,20.10
2022-12-18T20:39:26.382Z,19.98
2022-12-18T20:41:56.102Z,16.77
2022-12-18T20:44:24.223Z,19.08
2022-12-18T20:46:54.004Z,19.30
2022-12-18T20:49:21.854Z,19.35
2022-12-18T20:51:51.363Z,19.00
2022-12-18T20:54:20.773Z,19.65
2022-12-18T20:56:50.098Z,18.77
2022-12-18T20:59:19.322Z,21.55
2022-12-18T21:01:48.810Z,19.10
2022-12-18T21:04:18.527Z,19.45
2022-12-18T21:06:50.907Z,18.52
2022-12-18T21:09:19.235Z,20.73
2022-12-18T21:12:05.013Z,19.10
2022-12-18T21:14:34.178Z,18.67
2022-12-18T21:17:02.311Z,21.20
2022-12-18T21:19:30.376Z,21.63
2022-12-18T21:21:58.801Z,20.42
2022-12-18T21:24:28.181Z,19.90
2022-12-18T21:26:58.233Z,23.75
2022-12-18T21:29:27.662Z,19.35
2022-12-18T21:31:56.659Z,21.38
2022-12-18T21:34:26.729Z,19.33
2022-12-18T21:36:55.330Z,20.23
2022-12-18T21:39:23.413Z,19.35
2022-12-18T21:42:09.063Z,19.88
2022-12-18T21:44:41.873Z,19.65
2022-12-18T21:47:22.312Z,17.15
2022-12-18T21:49:50.166Z,18.40
2022-12-18T21:52:17.794Z,19.42
2022-12-18T21:54:45.462Z,17.85
2022-12-18T21:57:13.950Z,18.33
2022-12-18T21:59:43.414Z,17.52
2022-12-18T22:02:16.118Z,18.75
2022-12-18T22:04:45.197Z,18.67
2022-12-18T22:07:13.644Z,18.90
2022-12-18T22:09:41.825Z,17.17
2022-12-18T22:12:11.483Z,18.85
2022-12-18T22:14:41.205Z,19.17
2022-12-18T22:17:09.693Z,19.70
2022-12-18T22:19:42.887Z,19.75
2022-12-18T22:22:11.024Z,19.52
2022-12-18T22:24:38.603Z,18.48
2022-12-18T22:27:06.156Z,20.27
2022-12-18T22:29:51.333Z,19.48
2022-12-18T22:32:28.973Z,20.40
2022-12-18T22:35:05.780Z,19.80
2022-12-18T22:37:34.873Z,21.95
2022-12-18T22:40:02.832Z,21.27
2022-12-18T22:42:31.521Z,20.15
2022-12-18T22:45:00.220Z,20.13
2022-12-18T22:47:30.196Z,20.40
2022-12-18T22:49:59.763Z,20.23
2022-12-18T22:52:27.370Z,19.92
2022-12-18T22:54:55.058Z,20.05
2022-12-18T22:57:22.996Z,18.90
2022-12-18T22:59:51.051Z,19.17
2022-12-18T23:02:18.876Z,19.83
2022-12-18T23:04:47.412Z,21.05
2022-12-18T23:07:16.920Z,20.75
2022-12-18T23:09:45.155Z,21.83
2022-12-18T23:12:16.723Z,21.30
2022-12-18T23:14:47.096Z,19.75
2022-12-18T23:17:14.806Z,19.45
2022-12-18T23:19:48.555Z,22.25
2022-12-18T23:22:18.168Z,21.20
2022-12-18T23:24:45.820Z,19.33
2022-12-18T23:27:13.415Z,20.63
2022-12-18T23:29:41.447Z,22.98
2022-12-18T23:32:09.178Z,21.30
2022-12-18T23:34:36.865Z,19.23
2022-12-18T23:37:04.503Z,19.55
2022-12-18T23:39:33.468Z,22.30
2022-12-18T23:42:01.594Z,20.20
2022-12-18T23:44:29.234Z,20.75
2022-12-18T23:46:56.936Z,20.45
2022-12-18T23:49:24.657Z,20.55
2022-12-18T23:51:54.710Z,21.60
2022-12-18T23:54:32.688Z,21.73
2022-12-18T23:57:02.773Z,20.17
2022-12-18T23:59:30.411Z,19.73
